createdAt,value
2016-04-03T00:00:47.762Z,0
2016-04-03T00:01:47.748Z,0
2016-04-03T00:02:47.767Z,0
2016-04-03T00:03:47.739Z,0
2016-04-03T00:04:47.756Z,0
2016-04-03T00:05:47.775Z,0
2016-04-03T00:06:47.778Z,0
2016-04-03T00:07:47.781Z,0
2016-04-03T00:08:47.783Z,0
2016-04-03T00:09:47.786Z,0
2016-04-03T00:10:47.804Z,0
2016-04-03T00:11:47.807Z,0
2016-04-03T00:12:47.810Z,0
2016-04-03T00:13:47.828Z,0
2016-04-03T00:14:47.830Z,0
2016-04-03T00:15:47.849Z,0
2016-04-03T00:16:47.836Z,0
2016-04-03T00:17:47.855Z,0
2016-04-03T00:18:47.858Z,0
2016-04-03T00:19:47.860Z,0
2016-04-03T00:20:47.863Z,0
2016-04-03T00:21:47.882Z,0
2016-04-03T00:22:47.868Z,0
2016-04-03T00:23:47.887Z,0
2016-04-03T00:24:47.904Z,0
2016-04-03T00:25:47.908Z,0
2016-04-03T00:26:47.895Z,0
2016-04-03T00:27:47.913Z,0
2016-04-03T00:28:47.916Z,0
2016-04-03T00:29:47.934Z,0
2016-04-03T00:30:47.921Z,0
2016-04-03T00:31:47.783Z,0
2016-04-03T00:32:47.942Z,0
2016-04-03T00:33:47.789Z,0
2016-04-03T00:34:47.962Z,0
2016-04-03T00:35:47.950Z,0
2016-04-03T00:36:47.952Z,0
2016-04-03T00:37:47.970Z,0
2016-04-03T00:38:47.989Z,0
2016-04-03T00:39:48.023Z,0
2016-04-03T00:40:48.011Z,0
2016-04-03T00:41:47.998Z,0
2016-04-03T00:42:48.016Z,0
2016-04-03T00:43:48.019Z,0
2016-04-03T00:44:48.021Z,0
2016-04-03T00:45:48.024Z,0
2016-04-03T00:46:48.042Z,0
2016-04-03T00:47:48.029Z,0
2016-04-03T00:48:48.063Z,0
2016-04-03T00:49:48.049Z,0
2016-04-03T00:50:48.068Z,0
2016-04-03T00:51:48.071Z,0
2016-04-03T00:52:48.074Z,0
2016-04-03T00:53:48.093Z,0
2016-04-03T00:54:48.095Z,0
2016-04-03T00:55:48.098Z,0
2016-04-03T00:56:48.100Z,0
2016-04-03T00:57:48.103Z,0
2016-04-03T00:58:48.106Z,0
2016-04-03T00:59:48.123Z,0
2016-04-03T01:00:48.127Z,0
2016-04-03T01:01:48.129Z,0
2016-04-03T01:02:48.132Z,0
2016-04-03T01:03:48.135Z,0
2016-04-03T01:04:48.154Z,0
2016-04-03T01:05:48.156Z,0
2016-04-03T01:06:48.159Z,0
2016-04-03T01:07:48.011Z,0
2016-04-03T01:08:48.171Z,0
2016-04-03T01:09:48.173Z,0
2016-04-03T01:10:48.207Z,0
2016-04-03T01:11:48.194Z,0
2016-04-03T01:12:48.196Z,0
2016-04-03T01:13:48.199Z,0
2016-04-03T01:14:48.217Z,0
2016-04-03T01:15:48.221Z,0
2016-04-03T01:16:48.227Z,0
2016-04-03T01:17:48.230Z,0
2016-04-03T01:18:48.233Z,0
2016-04-03T01:19:48.235Z,0
2016-04-03T01:20:48.253Z,0
2016-04-03T01:21:48.255Z,0
2016-04-03T01:22:48.258Z,0
2016-04-03T01:23:48.261Z,0
2016-04-03T01:24:48.280Z,0
2016-04-03T01:25:48.283Z,0
2016-04-03T01:26:48.286Z,0
2016-04-03T01:27:48.288Z,0
2016-04-03T01:28:48.307Z,0
2016-04-03T01:29:48.309Z,0
2016-04-03T01:30:48.327Z,0
2016-04-03T01:31:48.315Z,0
2016-04-03T01:32:48.332Z,0
2016-04-03T01:33:48.335Z,0
2016-04-03T01:34:48.337Z,0
2016-04-03T01:35:48.356Z,0
2016-04-03T01:36:48.359Z,0
2016-04-03T01:37:48.361Z,0
2016-04-03T01:38:48.365Z,0
2016-04-03T01:39:48.367Z,0
2016-04-03T01:40:48.370Z,0
2016-04-03T01:41:48.403Z,0
2016-04-03T01:42:48.406Z,0
2016-04-03T01:43:48.409Z,0
2016-04-03T01:44:48.646Z,0
2016-04-03T01:45:48.399Z,0
2016-04-03T01:46:48.417Z,0
2016-04-03T01:47:48.420Z,0
2016-04-03T01:48:48.423Z,0
2016-04-03T01:49:48.425Z,0
2016-04-03T01:50:48.444Z,0
2016-04-03T01:51:48.446Z,0
2016-04-03T01:52:48.464Z,0
2016-04-03T01:53:48.452Z,0
2016-04-03T01:54:48.330Z,0
2016-04-03T01:55:48.472Z,0
2016-04-03T01:56:48.491Z,0
2016-04-03T01:57:48.477Z,0
2016-04-03T01:58:48.512Z,0
2016-04-03T01:59:48.499Z,0
2016-04-03T02:00:48.502Z,0
2016-04-03T02:01:48.505Z,0
2016-04-03T02:02:48.523Z,0
2016-04-03T02:03:48.526Z,0
2016-04-03T02:04:48.528Z,0
2016-04-03T02:05:48.531Z,0
2016-04-03T02:06:48.549Z,0
2016-04-03T02:07:48.541Z,0
2016-04-03T02:08:48.544Z,0
2016-04-03T02:09:48.578Z,0
2016-04-03T02:10:48.581Z,0
2016-04-03T02:11:48.584Z,0
2016-04-03T02:12:48.570Z,0
2016-04-03T02:13:48.589Z,0
2016-04-03T02:14:48.591Z,0
2016-04-03T02:15:48.609Z,0
2016-04-03T02:16:48.597Z,0
2016-04-03T02:17:48.614Z,0
2016-04-03T02:18:48.633Z,0
2016-04-03T02:19:48.635Z,0
2016-04-03T02:20:48.622Z,0
2016-04-03T02:21:48.657Z,0
2016-04-03T02:22:48.644Z,0
2016-04-03T02:23:48.663Z,0
2016-04-03T02:24:48.665Z,0
2016-04-03T02:25:48.652Z,0
2016-04-03T02:26:48.685Z,0
2016-04-03T02:27:48.673Z,0
2016-04-03T02:28:48.691Z,0
2016-04-03T02:29:48.694Z,0
2016-04-03T02:30:48.696Z,0
2016-04-03T02:31:48.715Z,0
2016-04-03T02:32:48.686Z,0
2016-04-03T02:33:48.720Z,0
2016-04-03T02:34:48.723Z,0
2016-04-03T02:35:48.726Z,0
2016-04-03T02:36:48.745Z,0
2016-04-03T02:37:48.747Z,0
2016-04-03T02:38:48.781Z,0
2016-04-03T02:39:48.752Z,0
2016-04-03T02:40:48.755Z,0
2016-04-03T02:41:48.789Z,0
2016-04-03T02:42:48.760Z,0
2016-04-03T02:43:48.794Z,0
2016-04-03T02:44:48.781Z,0
2016-04-03T02:45:48.784Z,0
2016-04-03T02:46:48.803Z,0
2016-04-03T02:47:48.805Z,0
2016-04-03T02:48:48.823Z,0
2016-04-03T02:49:48.810Z,0
2016-04-03T02:50:48.813Z,0
2016-04-03T02:51:48.846Z,0
2016-04-03T02:52:48.833Z,0
2016-04-03T02:53:48.852Z,0
2016-04-03T02:54:48.855Z,0
2016-04-03T02:55:48.858Z,0
2016-04-03T02:56:48.844Z,0
2016-04-03T02:57:48.879Z,0
2016-04-03T02:58:48.882Z,0
2016-04-03T02:59:48.885Z,0
2016-04-03T03:00:48.871Z,0
2016-04-03T03:01:48.890Z,0
2016-04-03T03:02:48.907Z,0
2016-04-03T03:03:48.895Z,0
2016-04-03T03:04:48.179Z,0
2016-04-03T03:05:48.915Z,0
2016-04-03T03:06:48.918Z,0
2016-04-03T03:07:48.936Z,0
2016-04-03T03:08:48.955Z,0
2016-04-03T03:09:48.942Z,0
2016-04-03T03:10:48.945Z,0
2016-04-03T03:11:48.948Z,0
2016-04-03T03:12:48.966Z,0
2016-04-03T03:13:48.969Z,0
2016-04-03T03:14:48.986Z,0
2016-04-03T03:15:48.974Z,0
2016-04-03T03:16:48.977Z,0
2016-04-03T03:17:48.994Z,0
2016-04-03T03:18:49.029Z,0
2016-04-03T03:19:49.000Z,0
2016-04-03T03:20:49.019Z,0
2016-04-03T03:21:49.022Z,0
2016-04-03T03:22:49.024Z,0
2016-04-03T03:23:49.027Z,0
2016-04-03T03:24:49.060Z,0
2016-04-03T03:25:49.032Z,0
2016-04-03T03:26:49.066Z,0
2016-04-03T03:27:49.052Z,0
2016-04-03T03:28:48.915Z,0
2016-04-03T03:29:49.058Z,0
2016-04-03T03:30:49.092Z,0
2016-04-03T03:31:49.080Z,0
2016-04-03T03:32:49.098Z,0
2016-04-03T03:33:49.085Z,0
2016-04-03T03:34:49.104Z,0
2016-04-03T03:35:49.090Z,0
2016-04-03T03:36:49.109Z,0
2016-04-03T03:37:49.111Z,0
2016-04-03T03:38:49.145Z,0
2016-04-03T03:39:49.117Z,0
2016-04-03T03:40:49.134Z,0
2016-04-03T03:41:49.153Z,0
2016-04-03T03:42:49.171Z,0
2016-04-03T03:43:49.158Z,0
2016-04-03T03:44:49.145Z,0
2016-04-03T03:45:49.180Z,0
2016-04-03T03:46:49.183Z,0
2016-04-03T03:47:49.169Z,0
2016-04-03T03:48:49.172Z,0
2016-04-03T03:49:49.174Z,0
2016-04-03T03:50:49.193Z,0
2016-04-03T03:51:49.227Z,0
2016-04-03T03:52:49.213Z,0
2016-04-03T03:53:49.216Z,0
2016-04-03T03:54:49.219Z,0
2016-04-03T03:55:49.222Z,0
2016-04-03T03:56:49.256Z,0
2016-04-03T03:57:49.244Z,0
2016-04-03T03:58:49.277Z,0
2016-04-03T03:59:49.249Z,0
2016-04-03T04:00:49.298Z,0
2016-04-03T04:01:49.269Z,0
2016-04-03T04:02:49.272Z,0
2016-04-03T04:03:49.290Z,0
2016-04-03T04:04:49.293Z,0
2016-04-03T04:05:49.295Z,0
2016-04-03T04:06:49.283Z,0
2016-04-03T04:07:49.301Z,0
2016-04-03T04:08:49.320Z,0
2016-04-03T04:09:49.307Z,0
2016-04-03T04:10:49.325Z,0
2016-04-03T04:11:49.328Z,0
2016-04-03T04:12:49.330Z,0
2016-04-03T04:13:49.348Z,0
2016-04-03T04:14:49.367Z,0
2016-04-03T04:15:49.353Z,0
2016-04-03T04:16:49.356Z,0
2016-04-03T04:17:49.374Z,0
2016-04-03T04:18:49.361Z,0
2016-04-03T04:19:49.364Z,0
2016-04-03T04:20:49.414Z,0
2016-04-03T04:21:49.386Z,0
2016-04-03T04:22:49.389Z,0
2016-04-03T04:23:49.407Z,0
2016-04-03T04:24:49.410Z,0
2016-04-03T04:25:49.443Z,0
2016-04-03T04:26:49.430Z,0
2016-04-03T04:27:49.418Z,0
2016-04-03T04:28:49.420Z,0
2016-04-03T04:29:49.424Z,0
2016-04-03T04:30:49.441Z,0
2016-04-03T04:31:49.460Z,0
2016-04-03T04:32:49.463Z,0
2016-04-03T04:33:49.449Z,0
2016-04-03T04:34:49.468Z,0
2016-04-03T04:35:49.470Z,0
2016-04-03T04:36:49.473Z,0
2016-04-03T04:37:49.491Z,0
2016-04-03T04:38:49.493Z,0
2016-04-03T04:39:49.496Z,0
2016-04-03T04:40:49.498Z,4
2016-04-03T04:41:49.533Z,4
2016-04-03T04:42:49.520Z,4
2016-04-03T04:43:49.554Z,4
2016-04-03T04:44:49.526Z,0
2016-04-03T04:45:49.559Z,4
2016-04-03T04:46:49.531Z,4
2016-04-03T04:47:49.549Z,4
2016-04-03T04:48:49.552Z,8
2016-04-03T04:49:49.555Z,4
2016-04-03T04:50:49.558Z,8
2016-04-03T04:51:49.575Z,8
2016-04-03T04:52:49.610Z,8
2016-04-03T04:53:49.596Z,8
2016-04-03T04:54:49.583Z,12
2016-04-03T04:55:49.602Z,8
2016-04-03T04:56:49.604Z,12
2016-04-03T04:57:49.608Z,12
2016-04-03T04:58:49.626Z,12
2016-04-03T04:59:49.629Z,16
2016-04-03T05:00:49.632Z,12
2016-04-03T05:01:49.618Z,16
2016-04-03T05:02:49.637Z,20
2016-04-03T05:03:49.639Z,16
2016-04-03T05:04:49.657Z,20
2016-04-03T05:05:49.660Z,20
2016-04-03T05:06:49.663Z,24
2016-04-03T05:07:49.901Z,20
2016-04-03T05:08:49.668Z,24
2016-04-03T05:09:49.718Z,24
2016-04-03T05:10:49.704Z,28
2016-04-03T05:11:49.692Z,28
2016-04-03T05:12:49.726Z,32
2016-04-03T05:13:49.697Z,32
2016-04-03T05:14:49.704Z,36
2016-04-03T05:15:49.696Z,40
2016-04-03T05:16:49.703Z,44
2016-04-03T05:17:49.694Z,48
2016-04-03T05:18:49.671Z,52
2016-04-03T05:19:49.685Z,56
2016-04-03T05:20:49.684Z,56
2016-04-03T05:21:49.714Z,60
2016-04-03T05:22:49.712Z,64
2016-04-03T05:23:49.697Z,72
2016-04-03T05:24:49.713Z,72
2016-04-03T05:25:49.714Z,76
2016-04-03T05:26:49.731Z,80
2016-04-03T05:27:49.733Z,84
2016-04-03T05:28:49.718Z,88
2016-04-03T05:29:49.752Z,96
2016-04-03T05:30:49.754Z,96
2016-04-03T05:31:49.756Z,104
2016-04-03T05:32:49.743Z,108
2016-04-03T05:33:49.745Z,112
2016-04-03T05:34:49.763Z,116
2016-04-03T05:35:49.766Z,124
2016-04-03T05:36:49.768Z,128
2016-04-03T05:37:49.770Z,132
2016-04-03T05:38:49.773Z,136
2016-04-03T05:39:49.775Z,136
2016-04-03T05:40:49.840Z,140
2016-04-03T05:41:49.793Z,144
2016-04-03T05:42:49.796Z,144
2016-04-03T05:43:49.798Z,152
2016-04-03T05:44:49.817Z,152
2016-04-03T05:45:49.819Z,152
2016-04-03T05:46:49.822Z,160
2016-04-03T05:47:49.825Z,160
2016-04-03T05:48:49.842Z,160
2016-04-03T05:49:49.861Z,164
2016-04-03T05:50:49.864Z,164
2016-04-03T05:51:49.851Z,172
2016-04-03T05:52:49.869Z,168
2016-04-03T05:53:49.856Z,172
2016-04-03T05:54:49.875Z,168
2016-04-03T05:55:49.878Z,172
2016-04-03T05:56:49.880Z,172
2016-04-03T05:57:49.899Z,176
2016-04-03T05:58:49.917Z,176
2016-04-03T05:59:49.920Z,176
2016-04-03T06:00:49.922Z,180
2016-04-03T06:01:49.925Z,184
2016-04-03T06:02:49.912Z,188
2016-04-03T06:03:49.915Z,192
2016-04-03T06:04:49.918Z,192
2016-04-03T06:05:49.952Z,192
2016-04-03T06:06:49.938Z,200
2016-04-03T06:07:49.957Z,204
2016-04-03T06:08:49.944Z,208
2016-04-03T06:09:49.962Z,208
2016-04-03T06:10:49.965Z,208
2016-04-03T06:11:49.984Z,212
2016-04-03T06:12:49.970Z,212
2016-04-03T06:13:50.004Z,216
2016-04-03T06:14:49.992Z,224
2016-04-03T06:15:49.994Z,228
2016-04-03T06:16:50.028Z,228
2016-04-03T06:17:50.000Z,228
2016-04-03T06:18:50.017Z,232
2016-04-03T06:19:50.020Z,236
2016-04-03T06:20:50.023Z,240
2016-04-03T06:21:50.042Z,240
2016-04-03T06:22:50.028Z,244
2016-04-03T06:23:50.062Z,244
2016-04-03T06:24:50.050Z,244
2016-04-03T06:25:50.068Z,244
2016-04-03T06:26:50.055Z,248
2016-04-03T06:27:50.073Z,256
2016-04-03T06:28:50.076Z,260
2016-04-03T06:29:50.094Z,260
2016-04-03T06:30:50.097Z,260
2016-04-03T06:31:50.084Z,264
2016-04-03T06:32:50.118Z,272
2016-04-03T06:33:50.105Z,280
2016-04-03T06:34:50.108Z,280
2016-04-03T06:35:50.126Z,284
2016-04-03T06:36:50.113Z,284
2016-04-03T06:37:50.116Z,280
2016-04-03T06:38:50.149Z,268
2016-04-03T06:39:50.137Z,264
2016-04-03T06:40:50.155Z,264
2016-04-03T06:41:50.157Z,264
2016-04-03T06:42:50.192Z,256
2016-04-03T06:43:50.163Z,260
2016-04-03T06:44:50.181Z,260
2016-04-03T06:45:50.168Z,256
2016-04-03T06:46:50.187Z,260
2016-04-03T06:47:50.206Z,256
2016-04-03T06:48:50.193Z,264
2016-04-03T06:49:50.211Z,264
2016-04-03T06:50:50.229Z,260
2016-04-03T06:51:50.231Z,256
2016-04-03T06:52:50.234Z,260
2016-04-03T06:53:50.237Z,260
2016-04-03T06:54:50.255Z,264
2016-04-03T06:55:50.242Z,264
2016-04-03T06:56:50.261Z,272
2016-04-03T06:57:50.264Z,276
2016-04-03T06:58:50.267Z,292
2016-04-03T06:59:50.269Z,304
2016-04-03T07:00:50.272Z,308
2016-04-03T07:01:50.289Z,308
2016-04-03T07:02:50.292Z,308
2016-04-03T07:03:50.311Z,308
2016-04-03T07:04:50.313Z,304
2016-04-03T07:05:50.316Z,312
2016-04-03T07:06:50.319Z,316
2016-04-03T07:07:50.321Z,320
2016-04-03T07:08:50.324Z,324
2016-04-03T07:09:50.343Z,320
2016-04-03T07:10:50.329Z,316
2016-04-03T07:11:50.364Z,324
2016-04-03T07:12:50.351Z,328
2016-04-03T07:13:50.354Z,332
2016-04-03T07:14:50.357Z,324
2016-04-03T07:15:50.360Z,324
2016-04-03T07:16:50.377Z,328
2016-04-03T07:17:50.396Z,336
2016-04-03T07:18:50.383Z,348
2016-04-03T07:19:50.385Z,356
2016-04-03T07:20:50.404Z,356
2016-04-03T07:21:50.407Z,352
2016-04-03T07:22:50.440Z,360
2016-04-03T07:23:50.412Z,404
2016-04-03T07:24:50.430Z,392
2016-04-03T07:25:50.433Z,376
2016-04-03T07:26:50.451Z,388
2016-04-03T07:27:50.453Z,392
2016-04-03T07:28:50.456Z,384
2016-04-03T07:29:50.459Z,380
2016-04-03T07:30:50.477Z,396
2016-04-03T07:31:50.480Z,404
2016-04-03T07:32:50.467Z,412
2016-04-03T07:33:50.705Z,412
2016-04-03T07:34:50.489Z,424
2016-04-03T07:35:50.507Z,432
2016-04-03T07:36:50.494Z,436
2016-04-03T07:37:50.528Z,452
2016-04-03T07:38:50.531Z,444
2016-04-03T07:39:50.517Z,460
2016-04-03T07:40:50.536Z,480
2016-04-03T07:41:50.538Z,464
2016-04-03T07:42:50.541Z,476
2016-04-03T07:43:50.544Z,472
2016-04-03T07:44:50.562Z,456
2016-04-03T07:45:50.565Z,460
2016-04-03T07:46:50.583Z,416
2016-04-03T07:47:50.585Z,360
2016-04-03T07:48:50.573Z,360
2016-04-03T07:49:50.981Z,372
2016-04-03T07:50:50.578Z,452
2016-04-03T07:51:49.878Z,440
2016-04-03T07:52:50.599Z,412
2016-04-03T07:53:50.462Z,416
2016-04-03T07:54:50.604Z,432
2016-04-03T07:55:50.623Z,420
2016-04-03T07:56:50.642Z,464
2016-04-03T07:57:50.628Z,452
2016-04-03T07:58:50.662Z,432
2016-04-03T07:59:50.650Z,432
2016-04-03T08:00:50.667Z,484
2016-04-03T08:01:50.670Z,528
2016-04-03T08:02:50.672Z,536
2016-04-03T08:03:50.676Z,524
2016-04-03T08:04:50.678Z,496
2016-04-03T08:05:50.697Z,544
2016-04-03T08:06:50.700Z,540
2016-04-03T08:07:50.686Z,532
2016-04-03T08:08:50.720Z,536
2016-04-03T08:09:50.722Z,532
2016-04-03T08:10:50.725Z,532
2016-04-03T08:11:50.713Z,528
2016-04-03T08:12:50.731Z,528
2016-04-03T08:13:50.733Z,580
2016-04-03T08:14:50.752Z,600
2016-04-03T08:15:50.739Z,596
2016-04-03T08:16:50.757Z,600
2016-04-03T08:17:50.604Z,596
2016-04-03T08:18:50.778Z,592
2016-04-03T08:19:50.765Z,592
2016-04-03T08:20:50.784Z,588
2016-04-03T08:21:50.786Z,588
2016-04-03T08:22:50.805Z,588
2016-04-03T08:23:50.792Z,584
2016-04-03T08:24:50.810Z,580
2016-04-03T08:25:50.813Z,580
2016-04-03T08:26:50.848Z,580
2016-04-03T08:27:50.818Z,584
2016-04-03T08:28:50.837Z,584
2016-04-03T08:29:50.840Z,592
2016-04-03T08:30:50.842Z,592
2016-04-03T08:31:50.861Z,592
2016-04-03T08:32:50.864Z,596
2016-04-03T08:33:50.866Z,608
2016-04-03T08:34:50.884Z,608
2016-04-03T08:35:50.887Z,608
2016-04-03T08:36:50.889Z,608
2016-04-03T08:37:50.892Z,616
2016-04-03T08:38:50.894Z,620
2016-04-03T08:39:50.928Z,620
2016-04-03T08:40:50.947Z,624
2016-04-03T08:41:50.918Z,636
2016-04-03T08:42:50.936Z,644
2016-04-03T08:43:50.939Z,656
2016-04-03T08:44:50.958Z,660
2016-04-03T08:45:50.976Z,664
2016-04-03T08:46:50.963Z,668
2016-04-03T08:47:50.949Z,684
2016-04-03T08:48:50.968Z,696
2016-04-03T08:49:50.987Z,700
2016-04-03T08:50:50.989Z,696
2016-04-03T08:51:50.992Z,700
2016-04-03T08:52:50.995Z,704
2016-04-03T08:53:51.012Z,716
2016-04-03T08:54:51.015Z,732
2016-04-03T08:55:51.018Z,748
2016-04-03T08:56:51.020Z,768
2016-04-03T08:57:51.024Z,788
2016-04-03T08:58:51.042Z,796
2016-04-03T08:59:51.045Z,780
2016-04-03T09:00:51.063Z,772
2016-04-03T09:01:51.050Z,760
2016-04-03T09:02:51.053Z,716
2016-04-03T09:03:51.071Z,756
2016-04-03T09:04:51.074Z,688
2016-04-03T09:05:51.092Z,744
2016-04-03T09:06:51.095Z,724
2016-04-03T09:07:51.016Z,728
2016-04-03T09:08:51.107Z,712
2016-04-03T09:09:51.110Z,708
2016-04-03T09:10:51.129Z,696
2016-04-03T09:11:51.131Z,672
2016-04-03T09:12:51.165Z,660
2016-04-03T09:13:51.136Z,712
2016-04-03T09:14:51.154Z,708
2016-04-03T09:15:51.157Z,840
2016-04-03T09:16:51.176Z,824
2016-04-03T09:17:51.163Z,896
2016-04-03T09:18:51.165Z,900
2016-04-03T09:19:51.075Z,872
2016-04-03T09:20:51.187Z,904
2016-04-03T09:21:51.189Z,944
2016-04-03T09:22:51.223Z,976
2016-04-03T09:23:51.210Z,1008
2016-04-03T09:24:51.228Z,1024
2016-04-03T09:25:51.230Z,1016
2016-04-03T09:26:51.233Z,1004
2016-04-03T09:27:51.236Z,1004
2016-04-03T09:28:51.255Z,1012
2016-04-03T09:29:51.258Z,1016
2016-04-03T09:30:51.291Z,992
2016-04-03T09:31:51.263Z,956
2016-04-03T09:32:51.280Z,964
2016-04-03T09:33:51.284Z,1012
2016-04-03T09:34:51.271Z,1052
2016-04-03T09:35:51.305Z,1088
2016-04-03T09:36:51.291Z,1132
2016-04-03T09:37:51.343Z,1144
2016-04-03T09:38:51.315Z,1100
2016-04-03T09:39:51.348Z,1080
2016-04-03T09:40:51.320Z,1044
2016-04-03T09:41:51.339Z,1008
2016-04-03T09:42:51.341Z,1012
2016-04-03T09:43:51.359Z,936
2016-04-03T09:44:51.362Z,932
2016-04-03T09:45:51.365Z,908
2016-04-03T09:46:51.383Z,920
2016-04-03T09:47:51.370Z,952
2016-04-03T09:48:51.373Z,976
2016-04-03T09:49:51.406Z,1012
2016-04-03T09:50:51.394Z,964
2016-04-03T09:51:51.412Z,1020
2016-04-03T09:52:51.415Z,1004
2016-04-03T09:53:51.418Z,1020
2016-04-03T09:54:51.436Z,1040
2016-04-03T09:55:51.266Z,1068
2016-04-03T09:56:51.441Z,1100
2016-04-03T09:57:51.460Z,1124
2016-04-03T09:58:51.462Z,1144
2016-04-03T09:59:51.465Z,1140
2016-04-03T10:00:51.468Z,1168
2016-04-03T10:01:51.486Z,1188
2016-04-03T10:02:51.520Z,1196
2016-04-03T10:03:51.332Z,1196
2016-04-03T10:04:51.399Z,1192
2016-04-03T10:05:51.587Z,1216
2016-04-03T10:06:51.515Z,1104
2016-04-03T10:07:51.534Z,1196
2016-04-03T10:08:51.551Z,1312
2016-04-03T10:09:51.554Z,1308
2016-04-03T10:10:51.556Z,1312
2016-04-03T10:11:51.560Z,1376
2016-04-03T10:12:51.562Z,1388
2016-04-03T10:13:51.565Z,1404
2016-04-03T10:14:51.584Z,1264
2016-04-03T10:15:51.586Z,1204
2016-04-03T10:16:51.589Z,1196
2016-04-03T10:17:51.606Z,1152
2016-04-03T10:18:51.609Z,1136
2016-04-03T10:19:51.675Z,1208
2016-04-03T10:20:51.631Z,1208
2016-04-03T10:21:51.617Z,1152
2016-04-03T10:22:51.636Z,1372
2016-04-03T10:23:51.655Z,1320
2016-04-03T10:24:51.658Z,1308
2016-04-03T10:25:51.675Z,1300
2016-04-03T10:26:51.694Z,1264
2016-04-03T10:27:51.665Z,1320
2016-04-03T10:28:51.683Z,1404
2016-04-03T10:29:51.702Z,1356
2016-04-03T10:30:51.705Z,1436
2016-04-03T10:31:51.708Z,1552
2016-04-03T10:32:51.726Z,1560
2016-04-03T10:33:51.729Z,1500
2016-04-03T10:34:51.731Z,1488
2016-04-03T10:35:51.780Z,1460
2016-04-03T10:36:51.751Z,1292
2016-04-03T10:37:51.770Z,1256
2016-04-03T10:38:52.179Z,1324
2016-04-03T10:39:51.776Z,1304
2016-04-03T10:40:51.779Z,1352
2016-04-03T10:41:51.781Z,1304
2016-04-03T10:42:51.815Z,1192
2016-04-03T10:43:51.818Z,1128
2016-04-03T10:44:51.805Z,1076
2016-04-03T10:45:51.823Z,1008
2016-04-03T10:46:51.826Z,928
2016-04-03T10:47:51.829Z,904
2016-04-03T10:48:51.862Z,912
2016-04-03T10:49:51.850Z,928
2016-04-03T10:50:51.883Z,980
2016-04-03T10:51:51.870Z,1020
2016-04-03T10:52:51.872Z,1072
2016-04-03T10:53:51.907Z,1144
2016-04-03T10:54:51.894Z,1216
2016-04-03T10:55:51.897Z,1308
2016-04-03T10:56:51.916Z,1360
2016-04-03T10:57:51.902Z,1344
2016-04-03T10:58:51.936Z,1336
2016-04-03T10:59:51.938Z,1288
2016-04-03T11:00:51.910Z,1264
2016-04-03T11:01:51.959Z,1504
2016-04-03T11:02:51.962Z,1532
2016-04-03T11:03:51.965Z,1552
2016-04-03T11:04:51.983Z,1552
2016-04-03T11:05:51.971Z,1360
2016-04-03T11:06:51.989Z,1388
2016-04-03T11:07:51.999Z,1332
2016-04-03T11:08:52.001Z,1320
2016-04-03T11:09:52.020Z,1304
2016-04-03T11:10:52.023Z,1368
2016-04-03T11:11:52.026Z,1380
2016-04-03T11:12:52.045Z,1456
2016-04-03T11:13:51.890Z,1524
2016-04-03T11:14:52.050Z,1444
2016-04-03T11:15:52.067Z,1456
2016-04-03T11:16:52.055Z,1360
2016-04-03T11:17:52.088Z,1324
2016-04-03T11:18:52.106Z,1384
2016-04-03T11:19:52.094Z,1428
2016-04-03T11:20:52.097Z,1420
2016-04-03T11:21:52.099Z,1464
2016-04-03T11:22:52.117Z,1460
2016-04-03T11:23:52.136Z,1456
2016-04-03T11:24:52.122Z,1480
2016-04-03T11:25:52.141Z,1528
2016-04-03T11:26:52.175Z,1536
2016-04-03T11:27:52.147Z,1516
2016-04-03T11:28:52.166Z,1408
2016-04-03T11:29:52.199Z,1320
2016-04-03T11:30:52.202Z,1228
2016-04-03T11:31:52.189Z,1156
2016-04-03T11:32:52.191Z,1108
2016-04-03T11:33:52.194Z,1096
2016-04-03T11:34:52.228Z,1132
2016-04-03T11:35:52.231Z,1104
2016-04-03T11:36:52.234Z,1128
2016-04-03T11:37:52.252Z,1112
2016-04-03T11:38:52.255Z,1132
2016-04-03T11:39:52.273Z,1116
2016-04-03T11:40:52.276Z,1104
2016-04-03T11:41:52.293Z,1108
2016-04-03T11:42:52.296Z,1144
2016-04-03T11:43:52.283Z,1196
2016-04-03T11:44:52.317Z,1220
2016-04-03T11:45:52.289Z,1220
2016-04-03T11:46:52.307Z,1216
2016-04-03T11:47:52.342Z,1268
2016-04-03T11:48:52.344Z,1360
2016-04-03T11:49:52.347Z,1344
2016-04-03T11:50:52.365Z,1336
2016-04-03T11:51:52.353Z,1304
2016-04-03T11:52:52.370Z,1296
2016-04-03T11:53:52.405Z,1316
2016-04-03T11:54:52.376Z,1308
2016-04-03T11:55:52.394Z,1292
2016-04-03T11:56:52.413Z,1276
2016-04-03T11:57:52.399Z,1200
2016-04-03T11:58:52.433Z,1272
2016-04-03T11:59:52.420Z,1328
2016-04-03T12:00:52.438Z,1360
2016-04-03T12:01:52.473Z,1372
2016-04-03T12:02:52.460Z,1344
2016-04-03T12:03:52.462Z,1336
2016-04-03T12:04:52.481Z,1332
2016-04-03T12:05:52.484Z,1292
2016-04-03T12:06:52.471Z,1272
2016-04-03T12:07:52.504Z,1292
2016-04-03T12:08:52.523Z,1300
2016-04-03T12:09:52.494Z,1292
2016-04-03T12:10:52.544Z,1296
2016-04-03T12:11:52.532Z,1296
2016-04-03T12:12:52.565Z,1304
2016-04-03T12:13:52.568Z,1292
2016-04-03T12:14:52.554Z,1280
2016-04-03T12:15:52.557Z,1288
2016-04-03T12:16:52.592Z,1320
2016-04-03T12:17:52.595Z,1328
2016-04-03T12:18:52.581Z,1328
2016-04-03T12:19:52.614Z,1320
2016-04-03T12:20:52.603Z,1292
2016-04-03T12:21:52.636Z,1308
2016-04-03T12:22:52.639Z,1332
2016-04-03T12:23:52.625Z,1320
2016-04-03T12:24:52.659Z,1328
2016-04-03T12:25:52.631Z,1328
2016-04-03T12:26:52.649Z,1344
2016-04-03T12:27:52.684Z,1388
2016-04-03T12:28:52.670Z,1380
2016-04-03T12:29:52.673Z,1316
2016-04-03T12:30:52.723Z,1264
2016-04-03T12:31:52.694Z,1292
2016-04-03T12:32:52.744Z,1304
2016-04-03T12:33:52.716Z,1316
2016-04-03T12:34:52.733Z,1340
2016-04-03T12:35:52.737Z,1372
2016-04-03T12:36:52.755Z,1384
2016-04-03T12:37:52.757Z,1404
2016-04-03T12:38:52.760Z,1412
2016-04-03T12:39:52.778Z,1388
2016-04-03T12:40:52.782Z,1376
2016-04-03T12:41:52.785Z,1364
2016-04-03T12:42:52.802Z,1364
2016-04-03T12:43:52.805Z,1352
2016-04-03T12:44:52.808Z,1356
2016-04-03T12:45:52.857Z,1348
2016-04-03T12:46:52.813Z,1344
2016-04-03T12:47:52.832Z,1336
2016-04-03T12:48:52.866Z,1332
2016-04-03T12:49:52.852Z,1324
2016-04-03T12:50:52.855Z,1316
2016-04-03T12:51:52.874Z,1308
2016-04-03T12:52:52.876Z,1312
2016-04-03T12:53:52.895Z,1296
2016-04-03T12:54:52.928Z,1292
2016-04-03T12:55:52.915Z,1296
2016-04-03T12:56:52.934Z,1284
2016-04-03T12:57:52.968Z,1280
2016-04-03T12:58:52.939Z,1272
2016-04-03T12:59:52.942Z,1260
2016-04-03T13:00:52.961Z,1264
2016-04-03T13:01:52.979Z,1260
2016-04-03T13:02:52.981Z,1268
2016-04-03T13:03:52.968Z,1272
2016-04-03T13:04:52.987Z,1264
2016-04-03T13:05:52.989Z,1248
2016-04-03T13:06:53.008Z,1228
2016-04-03T13:07:53.026Z,1232
2016-04-03T13:08:53.028Z,1236
2016-04-03T13:09:53.031Z,1236
2016-04-03T13:10:53.050Z,1236
2016-04-03T13:11:53.069Z,1232
2016-04-03T13:12:53.071Z,1228
2016-04-03T13:13:53.074Z,1220
2016-04-03T13:14:53.092Z,1220
2016-04-03T13:15:53.094Z,1224
2016-04-03T13:16:53.082Z,1224
2016-04-03T13:17:53.116Z,1224
2016-04-03T13:18:53.118Z,1224
2016-04-03T13:19:53.137Z,1228
2016-04-03T13:20:53.124Z,1224
2016-04-03T13:21:53.157Z,1228
2016-04-03T13:22:53.144Z,1200
2016-04-03T13:23:53.163Z,1244
2016-04-03T13:24:53.165Z,1248
2016-04-03T13:25:53.168Z,1248
2016-04-03T13:26:53.187Z,1252
2016-04-03T13:27:53.204Z,1252
2016-04-03T13:28:53.207Z,1268
2016-04-03T13:29:53.225Z,1264
2016-04-03T13:30:53.229Z,1252
2016-04-03T13:31:53.231Z,1180
2016-04-03T13:32:53.264Z,1224
2016-04-03T13:33:53.253Z,1220
2016-04-03T13:34:53.255Z,1212
2016-04-03T13:35:53.288Z,1180
2016-04-03T13:36:53.291Z,1228
2016-04-03T13:37:53.325Z,1236
2016-04-03T13:38:53.297Z,1212
2016-04-03T13:39:53.300Z,1188
2016-04-03T13:40:53.319Z,1180
2016-04-03T13:41:53.164Z,1168
2016-04-03T13:42:53.167Z,1172
2016-04-03T13:43:53.341Z,1168
2016-04-03T13:44:53.360Z,1152
2016-04-03T13:45:53.363Z,1144
2016-04-03T13:46:53.396Z,1100
2016-04-03T13:47:53.383Z,1108
2016-04-03T13:48:53.371Z,1092
2016-04-03T13:49:53.388Z,1120
2016-04-03T13:50:53.408Z,1112
2016-04-03T13:51:53.410Z,1092
2016-04-03T13:52:53.413Z,1112
2016-04-03T13:53:53.432Z,1116
2016-04-03T13:54:53.434Z,1104
2016-04-03T13:55:53.452Z,1076
2016-04-03T13:56:53.298Z,1032
2016-04-03T13:57:53.473Z,1008
2016-04-03T13:58:53.492Z,1036